Latest Weather Observations for Ocean Reef

IDW60901

Issued at 9:51 pm WST Saturday 1 October 2016 (issued every 10 minutes, with the page automatically refreshed every 10 minutes)

About weather observations | Map of Perth area stations | Latest observations for Perth area | Other Formats
Station Details ID: 009214 Name: OCEAN REEF Lat: -31.76 Lon: 115.73 Height: 10.0 m
Data from the previous 72 hours. | See also: Recent months at Ocean Reef
Date/Time
WST
Temp
°C
App
Temp
°C
Dew
Point
°C
Rel
Hum
%
Delta-T
°C
Wind Press
QNH
hPa
Press
MSL
hPa
Rain since
9am
mm
Dir  Spd
km/h
Gust
km/h
Spd
kts
Gust
kts
01/09:30pm - - - - - SW 52 63 28 34 - - -
01/09:00pm - - - - - SW 57 69 31 37 - - -
01/08:30pm - - - - - SW 56 69 30 37 - - -
01/08:00pm - - - - - SW 48 69 26 37 - - -
01/07:32pm - - - - - SW 57 82 31 44 - - -
01/07:30pm - - - - - SW 54 70 29 38 - - -
01/07:00pm - - - - - SW 50 67 27 36 - - -
01/06:42pm - - - - - WSW 52 70 28 38 - - -
01/06:30pm - - - - - SW 50 67 27 36 - - -
01/06:08pm - - - - - SW 54 80 29 43 - - -
01/06:00pm - - - - - WSW 54 67 29 36 - - -
01/05:30pm - - - - - WSW 59 76 32 41 - - -
01/05:13pm - - - - - WSW 52 72 28 39 - - -
01/05:00pm - - - - - SW 50 63 27 34 - - -
01/04:30pm - - - - - SW 48 67 26 36 - - -
01/04:24pm - - - - - SW 54 70 29 38 - - -
01/04:18pm - - - - - SW 65 93 35 50 - - -
01/04:10pm - - - - - W 56 93 30 50 - - -
01/04:09pm - - - - - W 52 82 28 44 - - -
01/04:06pm - - - - - W 46 69 25 37 - - -
01/04:00pm - - - - - WSW 46 57 25 31 - - -
01/03:37pm - - - - - WSW 54 74 29 40 - - -
01/03:30pm - - - - - WSW 54 67 29 36 - - -
01/03:00pm - - - - - WSW 56 80 30 43 - - -
01/02:44pm - - - - - WSW 59 89 32 48 - - -
01/02:30pm - - - - - WSW 57 72 31 39 - - -
01/02:05pm - - - - - SW 48 67 26 36 - - -
01/02:00pm - - - - - SW 54 67 29 36 - - -
01/01:30pm - - - - - WSW 52 70 28 38 - - -
01/01:01pm - - - - - WSW 46 67 25 36 - - -
01/01:00pm - - - - - WSW 46 63 25 34 - - -
01/12:48pm - - - - - WSW 52 70 28 38 - - -
01/12:30pm - - - - - WSW 54 67 29 36 - - -
01/12:14pm - - - - - WSW 57 89 31 48 - - -
01/12:11pm - - - - - WSW 52 70 28 38 - - -
01/11:33am - - - - - SW 52 70 28 38 - - -
01/11:30am - - - - - WSW 56 72 30 39 - - -
01/11:07am - - - - - WSW 56 74 30 40 - - -
01/11:00am - - - - - WSW 57 69 31 37 - - -
01/10:30am - - - - - WSW 57 74 31 40 - - -
01/10:01am - - - - - WSW 57 76 31 41 - - -
01/10:00am - - - - - WSW 56 69 30 37 - - -
01/09:40am - - - - - WSW 61 83 33 45 - - -
01/09:30am - - - - - WSW 63 74 34 40 - - -
01/09:00am - - - - - WSW 59 80 32 43 - - -
01/08:32am - - - - - WSW 56 74 30 40 - - -
01/08:30am - - - - - WSW 59 74 32 40 - - -
01/08:08am - - - - - W 54 72 29 39 - - -
01/08:00am - - - - - W 56 70 30 38 - - -
01/07:30am - - - - - W 67 87 36 47 - - -
01/07:26am - - - - - W 67 87 36 47 - - -
01/07:05am - - - - - W 52 70 28 38 - - -
01/07:00am - - - - - W 56 70 30 38 - - -
01/06:43am - - - - - WNW 54 72 29 39 - - -
01/06:30am - - - - - WNW 54 69 29 37 - - -
01/06:18am - - - - - WNW 52 70 28 38 - - -
01/06:00am - - - - - WNW 54 70 29 38 - - -
01/05:44am - - - - - WNW 57 82 31 44 - - -
01/05:30am - - - - - WNW 57 69 31 37 - - -
01/05:00am - - - - - WNW 54 65 29 35 - - -
01/04:30am - - - - - NW 52 61 28 33 - - -
01/04:00am - - - - - WNW 50 61 27 33 - - -
01/03:30am - - - - - WNW 48 56 26 30 - - -
01/03:00am - - - - - WNW 48 57 26 31 - - -
01/02:30am - - - - - WNW 46 57 25 31 - - -
01/02:00am - - - - - WNW 44 54 24 29 - - -
01/01:30am - - - - - WNW 41 48 22 26 - - -
01/01:00am - - - - - WNW 39 44 21 24 - - -
01/12:30am - - - - - WNW 37 46 20 25 - - -
01/12:00am - - - - - WNW 39 46 21 25 - - -
 
Date/Time
WST
Temp
°C
App
Temp
°C
Dew
Point
°C
Rel
Hum
%
Delta-T
°C
Wind Press
QNH
hPa
Press
MSL
hPa
Rain since
9am
mm
Dir  Spd
km/h
Gust
km/h
Spd
kts
Gust
kts
30/11:30pm - - - - - WNW 35 41 19 22 - - -
30/11:00pm - - - - - WNW 30 41 16 22 - - -
30/10:30pm - - - - - W 30 35 16 19 - - -
30/10:00pm - - - - - W 28 33 15 18 - - -
30/09:30pm - - - - - WNW 28 35 15 19 - - -
30/09:00pm - - - - - W 32 37 17 20 - - -
30/08:30pm - - - - - WSW 28 33 15 18 - - -
30/08:00pm - - - - - WNW 35 39 19 21 - - -
30/07:30pm - - - - - WNW 32 35 17 19 - - -
30/07:00pm - - - - - W 20 26 11 14 - - -
30/06:36pm - - - - - W 35 54 19 29 - - -
30/06:30pm - - - - - WSW 46 56 25 30 - - -
30/06:15pm - - - - - W 37 56 20 30 - - -
30/06:00pm - - - - - W 28 33 15 18 - - -
30/05:30pm - - - - - W 39 54 21 29 - - -
30/05:00pm - - - - - W 33 37 18 20 - - -
30/04:30pm - - - - - W 24 43 13 23 - - -
30/04:18pm - - - - - W 30 39 16 21 - - -
30/04:00pm - - - - - WSW 43 56 23 30 - - -
30/03:46pm - - - - - W 33 52 18 28 - - -
30/03:30pm - - - - - W 37 46 20 25 - - -
30/03:00pm - - - - - W 43 54 23 29 - - -
30/02:30pm - - - - - W 35 39 19 21 - - -
30/02:00pm - - - - - W 37 43 20 23 - - -
30/01:30pm - - - - - W 37 44 20 24 - - -
30/01:00pm - - - - - W 32 39 17 21 - - -
30/12:30pm - - - - - WNW 32 39 17 21 - - -
30/12:00pm - - - - - NW 35 46 19 25 - - -
30/11:30am - - - - - WNW 43 56 23 30 - - -
30/11:00am - - - - - NW 41 48 22 26 - - -
30/10:30am - - - - - NW 41 48 22 26 - - -
30/10:00am - - - - - NW 37 43 20 23 - - -
30/09:30am - - - - - NW 37 43 20 23 - - -
30/09:00am - - - - - WNW 37 44 20 24 - - -
30/08:30am - - - - - NW 33 39 18 21 - - -
30/08:00am - - - - - NW 32 37 17 20 - - -
30/07:30am - - - - - WNW 32 35 17 19 - - -
30/07:00am - - - - - WNW 28 33 15 18 - - -
30/06:30am - - - - - WNW 28 32 15 17 - - -
30/06:00am - - - - - W 26 30 14 16 - - -
30/05:30am - - - - - W 28 33 15 18 - - -
30/05:00am - - - - - N 11 19 6 10 - - -
30/04:30am - - - - - N 9 13 5 7 - - -
30/04:00am - - - - - NNE 13 15 7 8 - - -
30/03:30am - - - - - NE 11 13 6 7 - - -
30/03:00am - - - - - NNE 11 13 6 7 - - -
30/02:30am - - - - - ENE 11 15 6 8 - - -
30/02:00am - - - - - NE 11 13 6 7 - - -
30/01:30am - - - - - ENE 15 17 8 9 - - -
30/01:00am - - - - - ENE 13 15 7 8 - - -
30/12:30am - - - - - ENE 15 15 8 8 - - -
30/12:00am - - - - - ENE 13 17 7 9 - - -
 
Date/Time
WST
Temp
°C
App
Temp
°C
Dew
Point
°C
Rel
Hum
%
Delta-T
°C
Wind Press
QNH
hPa
Press
MSL
hPa
Rain since
9am
mm
Dir  Spd
km/h
Gust
km/h
Spd
kts
Gust
kts
29/11:30pm - - - - - ENE 15 17 8 9 - - -
29/11:00pm - - - - - E 13 15 7 8 - - -
29/10:30pm - - - - - E 11 13 6 7 - - -
29/10:00pm - - - - - SSW 17 20 9 11 - - -
29/09:30pm - - - - - S 15 19 8 10 - - -
29/09:00pm - - - - - SSW 13 22 7 12 - - -
29/08:30pm - - - - - SW 15 17 8 9 - - -
29/08:00pm - - - - - SW 15 19 8 10 - - -
29/07:30pm - - - - - SW 17 19 9 10 - - -
29/07:00pm - - - - - SW 22 26 12 14 - - -
29/06:30pm - - - - - SW 22 28 12 15 - - -
29/06:00pm - - - - - SW 22 28 12 15 - - -
29/05:30pm - - - - - SW 22 28 12 15 - - -
29/05:00pm - - - - - SW 20 24 11 13 - - -
29/04:30pm - - - - - SW 19 24 10 13 - - -
29/04:00pm - - - - - SSW 17 19 9 10 - - -
29/03:30pm - - - - - SW 17 20 9 11 - - -
29/03:00pm - - - - - SW 17 22 9 12 - - -
29/02:30pm - - - - - SW 22 26 12 14 - - -
29/02:00pm - - - - - SW 20 26 11 14 - - -
29/01:30pm - - - - - SW 20 24 11 13 - - -
29/01:00pm - - - - - SW 17 26 9 14 - - -
29/12:30pm - - - - - NW 7 24 4 13 - - -
29/12:00pm - - - - - ENE 9 19 5 10 - - -
29/11:30am - - - - - ENE 13 19 7 10 - - -
29/11:00am - - - - - E 15 22 8 12 - - -
29/10:30am - - - - - NNE 13 24 7 13 - - -
29/10:00am - - - - - NE 17 26 9 14 - - -
29/09:30am - - - - - ENE 20 32 11 17 - - -
29/09:00am - - - - - NE 22 35 12 19 - - -
29/08:30am - - - - - NE 22 30 12 16 - - -
29/08:00am - - - - - ENE 30 41 16 22 - - -
29/07:30am - - - - - ENE 28 37 15 20 - - -
29/07:00am - - - - - ENE 28 37 15 20 - - -
29/06:30am - - - - - ENE 24 33 13 18 - - -
29/06:00am - - - - - ENE 22 30 12 16 - - -
29/05:30am - - - - - ENE 19 28 10 15 - - -
29/05:00am - - - - - ENE 19 28 10 15 - - -
29/04:30am - - - - - ENE 19 28 10 15 - - -
29/04:00am - - - - - ENE 20 28 11 15 - - -
29/03:30am - - - - - ENE 20 30 11 16 - - -
29/03:00am - - - - - ENE 20 28 11 15 - - -
29/02:30am - - - - - ENE 17 20 9 11 - - -
29/02:00am - - - - - ENE 13 15 7 8 - - -
29/01:30am - - - - - ENE 11 13 6 7 - - -
29/01:00am - - - - - E 13 15 7 8 - - -
29/12:30am - - - - - E 13 15 7 8 - - -
29/12:00am - - - - - ESE 13 15 7 8 - - -
 
Date/Time
WST
Temp
°C
App
Temp
°C
Dew
Point
°C
Rel
Hum
%
Delta-T
°C
Wind Press
QNH
hPa
Press
MSL
hPa
Rain since
9am
mm
Dir  Spd
km/h
Gust
km/h
Spd
kts
Gust
kts
28/11:30pm - - - - - ESE 15 19 8 10 - - -
28/11:00pm - - - - - ESE 15 20 8 11 - - -
28/10:30pm - - - - - SE 15 20 8 11 - - -
28/10:00pm - - - - - SE 13 17 7 9 - - -

Latest Capital City Observations: Canberra | Sydney | Melbourne | Brisbane | Adelaide | Perth | Hobart | Darwin

Other Formats:

Comma delimited format used in spreadsheet applications
http://www.bom.gov.au/fwo/IDW60901/IDW60901.94607.axf

JavaScript Object Notation format (JSON) in row-major order
http://www.bom.gov.au/fwo/IDW60901/IDW60901.94607.json